sensor_id;sensor_type;location;lat;lon;timestamp;temperature;humidity
14378;DHT22;7272;53.668;9.578;2022-11-20T00:02:13;3.40;99.90
14378;DHT22;7272;53.668;9.578;2022-11-20T00:05:16;3.40;99.90
14378;DHT22;7272;53.668;9.578;2022-11-20T00:08:18;3.50;99.90
14378;DHT22;7272;53.668;9.578;2022-11-20T00:11:22;3.50;99.90
14378;DHT22;7272;53.668;9.578;2022-11-20T00:14:25;3.50;99.90
14378;DHT22;7272;53.668;9.578;2022-11-20T00:17:27;3.50;99.90
14378;DHT22;7272;53.668;9.578;2022-11-20T00:20:30;3.40;99.90
14378;DHT22;7272;53.668;9.578;2022-11-20T00:23:32;3.40;99.90
14378;DHT22;7272;53.668;9.578;2022-11-20T00:26:34;3.40;99.90
14378;DHT22;7272;53.668;9.578;2022-11-20T00:29:36;3.40;99.90
14378;DHT22;7272;53.668;9.578;2022-11-20T00:32:38;3.40;99.90
14378;DHT22;7272;53.668;9.578;2022-11-20T00:35:41;3.40;99.90
14378;DHT22;7272;53.668;9.578;2022-11-20T00:38:43;3.50;99.90
14378;DHT22;7272;53.668;9.578;2022-11-20T00:41:45;3.50;99.90
14378;DHT22;7272;53.668;9.578;2022-11-20T00:44:47;3.50;99.90
14378;DHT22;7272;53.668;9.578;2022-11-20T00:47:49;3.50;99.90
14378;DHT22;7272;53.668;9.578;2022-11-20T00:50:52;3.50;99.90
14378;DHT22;7272;53.668;9.578;2022-11-20T00:53:55;3.50;99.90
14378;DHT22;7272;53.668;9.578;2022-11-20T00:56:57;3.50;99.90
14378;DHT22;7272;53.668;9.578;2022-11-20T00:59:59;3.60;99.90
14378;DHT22;7272;53.668;9.578;2022-11-20T01:03:01;3.60;99.90
14378;DHT22;7272;53.668;9.578;2022-11-20T01:06:06;3.60;99.90
14378;DHT22;7272;53.668;9.578;2022-11-20T01:09:12;3.60;99.90
14378;DHT22;7272;53.668;9.578;2022-11-20T01:12:14;3.60;99.90
14378;DHT22;7272;53.668;9.578;2022-11-20T01:15:16;3.60;99.90
14378;DHT22;7272;53.668;9.578;2022-11-20T01:18:18;3.60;99.90
14378;DHT22;7272;53.668;9.578;2022-11-20T01:21:22;3.70;99.90
14378;DHT22;7272;53.668;9.578;2022-11-20T01:24:25;3.60;99.90
14378;DHT22;7272;53.668;9.578;2022-11-20T01:27:26;3.60;99.90
14378;DHT22;7272;53.668;9.578;2022-11-20T01:30:28;3.60;99.90
14378;DHT22;7272;53.668;9.578;2022-11-20T01:33:30;3.60;99.90
14378;DHT22;7272;53.668;9.578;2022-11-20T01:36:35;3.60;99.90
14378;DHT22;7272;53.668;9.578;2022-11-20T01:39:37;3.60;99.90
14378;DHT22;7272;53.668;9.578;2022-11-20T01:42:46;3.50;99.90
14378;DHT22;7272;53.668;9.578;2022-11-20T01:46:15;3.50;99.90
14378;DHT22;7272;53.668;9.578;2022-11-20T01:49:21;3.50;99.90
14378;DHT22;7272;53.668;9.578;2022-11-20T01:52:30;3.50;99.90
14378;DHT22;7272;53.668;9.578;2022-11-20T01:55:37;3.40;99.90
14378;DHT22;7272;53.668;9.578;2022-11-20T01:58:45;3.40;99.90
14378;DHT22;7272;53.668;9.578;2022-11-20T02:01:49;3.40;99.90
14378;DHT22;7272;53.668;9.578;2022-11-20T02:04:53;3.40;99.90
14378;DHT22;7272;53.668;9.578;2022-11-20T02:07:58;3.40;99.90
14378;DHT22;7272;53.668;9.578;2022-11-20T02:11:00;3.40;99.90
14378;DHT22;7272;53.668;9.578;2022-11-20T02:14:03;3.40;99.90
14378;DHT22;7272;53.668;9.578;2022-11-20T02:17:05;3.40;99.90
14378;DHT22;7272;53.668;9.578;2022-11-20T02:20:09;3.50;99.90
14378;DHT22;7272;53.668;9.578;2022-11-20T02:23:15;3.50;99.90
14378;DHT22;7272;53.668;9.578;2022-11-20T02:26:23;3.50;99.90
14378;DHT22;7272;53.668;9.578;2022-11-20T02:29:28;3.50;99.90
14378;DHT22;7272;53.668;9.578;2022-11-20T02:32:34;3.50;99.90
14378;DHT22;7272;53.668;9.578;2022-11-20T02:35:42;3.50;99.90
14378;DHT22;7272;53.668;9.578;2022-11-20T02:38:44;3.50;99.90
14378;DHT22;7272;53.668;9.578;2022-11-20T02:41:48;3.60;99.90
14378;DHT22;7272;53.668;9.578;2022-11-20T02:44:49;3.60;99.90
14378;DHT22;7272;53.668;9.578;2022-11-20T02:47:52;3.60;99.90
14378;DHT22;7272;53.668;9.578;2022-11-20T02:50:54;3.60;99.90
14378;DHT22;7272;53.668;9.578;2022-11-20T02:53:56;3.60;99.90
14378;DHT22;7272;53.668;9.578;2022-11-20T02:56:59;3.60;99.90
14378;DHT22;7272;53.668;9.578;2022-11-20T03:00:02;3.60;99.90
14378;DHT22;7272;53.668;9.578;2022-11-20T03:03:04;3.50;99.90
14378;DHT22;7272;53.668;9.578;2022-11-20T03:06:06;3.50;99.90
14378;DHT22;7272;53.668;9.578;2022-11-20T03:09:08;3.50;99.90
14378;DHT22;7272;53.668;9.578;2022-11-20T03:12:11;3.50;99.90
14378;DHT22;7272;53.668;9.578;2022-11-20T03:15:13;3.50;99.90
14378;DHT22;7272;53.668;9.578;2022-11-20T03:18:15;3.40;99.90
14378;DHT22;7272;53.668;9.578;2022-11-20T03:21:17;3.40;99.90
14378;DHT22;7272;53.668;9.578;2022-11-20T03:24:19;3.40;99.90
14378;DHT22;7272;53.668;9.578;2022-11-20T03:27:22;3.40;99.90
14378;DHT22;7272;53.668;9.578;2022-11-20T03:30:24;3.40;99.90
14378;DHT22;7272;53.668;9.578;2022-11-20T03:33:28;3.30;99.90
14378;DHT22;7272;53.668;9.578;2022-11-20T03:36:30;3.30;99.90
14378;DHT22;7272;53.668;9.578;2022-11-20T03:39:32;3.30;99.90
14378;DHT22;7272;53.668;9.578;2022-11-20T03:42:35;3.30;99.90
14378;DHT22;7272;53.668;9.578;2022-11-20T03:45:46;3.30;99.90
14378;DHT22;7272;53.668;9.578;2022-11-20T03:48:49;3.20;99.90
14378;DHT22;7272;53.668;9.578;2022-11-20T03:51:51;3.20;99.90
14378;DHT22;7272;53.668;9.578;2022-11-20T03:54:52;3.20;99.90
14378;DHT22;7272;53.668;9.578;2022-11-20T03:57:56;3.20;99.90
14378;DHT22;7272;53.668;9.578;2022-11-20T04:00:57;3.20;99.90
14378;DHT22;7272;53.668;9.578;2022-11-20T04:03:59;3.10;99.90
14378;DHT22;7272;53.668;9.578;2022-11-20T04:07:02;3.20;99.90
14378;DHT22;7272;53.668;9.578;2022-11-20T04:10:05;3.20;99.90
14378;DHT22;7272;53.668;9.578;2022-11-20T04:13:08;3.20;99.90
14378;DHT22;7272;53.668;9.578;2022-11-20T04:16:10;3.20;99.90
14378;DHT22;7272;53.668;9.578;2022-11-20T04:19:14;3.20;99.90
14378;DHT22;7272;53.668;9.578;2022-11-20T04:22:16;3.20;99.90
14378;DHT22;7272;53.668;9.578;2022-11-20T04:25:17;3.20;99.90
14378;DHT22;7272;53.668;9.578;2022-11-20T04:28:21;3.20;99.90
14378;DHT22;7272;53.668;9.578;2022-11-20T04:31:25;3.20;99.90
14378;DHT22;7272;53.668;9.578;2022-11-20T04:34:27;3.10;99.90
14378;DHT22;7272;53.668;9.578;2022-11-20T04:37:29;3.20;99.90
14378;DHT22;7272;53.668;9.578;2022-11-20T04:40:31;3.20;99.90
14378;DHT22;7272;53.668;9.578;2022-11-20T04:43:34;3.20;99.90
14378;DHT22;7272;53.668;9.578;2022-11-20T04:46:38;3.20;99.90
14378;DHT22;7272;53.668;9.578;2022-11-20T04:49:40;3.10;99.90
14378;DHT22;7272;53.668;9.578;2022-11-20T04:52:42;3.10;99.90
14378;DHT22;7272;53.668;9.578;2022-11-20T04:55:44;3.10;99.90
14378;DHT22;7272;53.668;9.578;2022-11-20T04:58:48;3.00;99.90
14378;DHT22;7272;53.668;9.578;2022-11-20T05:01:50;3.00;99.90
14378;DHT22;7272;53.668;9.578;2022-11-20T05:04:52;2.90;99.90
14378;DHT22;7272;53.668;9.578;2022-11-20T05:07:56;2.90;99.90
14378;DHT22;7272;53.668;9.578;2022-11-20T05:11:00;2.80;99.90
14378;DHT22;7272;53.668;9.578;2022-11-20T05:14:03;2.80;99.90
14378;DHT22;7272;53.668;9.578;2022-11-20T05:17:05;2.70;99.90
14378;DHT22;7272;53.668;9.578;2022-11-20T05:20:08;2.70;99.90
14378;DHT22;7272;53.668;9.578;2022-11-20T05:23:10;2.70;99.90
14378;DHT22;7272;53.668;9.578;2022-11-20T05:26:14;2.70;99.90
14378;DHT22;7272;53.668;9.578;2022-11-20T05:29:17;2.70;99.90
14378;DHT22;7272;53.668;9.578;2022-11-20T05:32:19;2.80;99.90
14378;DHT22;7272;53.668;9.578;2022-11-20T05:35:21;2.80;99.90
14378;DHT22;7272;53.668;9.578;2022-11-20T05:38:23;2.80;99.90
14378;DHT22;7272;53.668;9.578;2022-11-20T05:41:25;2.80;99.90
14378;DHT22;7272;53.668;9.578;2022-11-20T05:44:28;2.80;99.90
14378;DHT22;7272;53.668;9.578;2022-11-20T05:47:32;2.90;99.90
14378;DHT22;7272;53.668;9.578;2022-11-20T05:50:35;2.80;99.90
14378;DHT22;7272;53.668;9.578;2022-11-20T05:53:37;2.80;99.90
14378;DHT22;7272;53.668;9.578;2022-11-20T05:56:39;2.80;99.90
14378;DHT22;7272;53.668;9.578;2022-11-20T05:59:42;2.80;99.90
14378;DHT22;7272;53.668;9.578;2022-11-20T06:02:44;2.80;99.90
14378;DHT22;7272;53.668;9.578;2022-11-20T06:05:46;2.80;99.90
14378;DHT22;7272;53.668;9.578;2022-11-20T06:08:48;2.80;99.90
14378;DHT22;7272;53.668;9.578;2022-11-20T06:11:50;2.80;99.90
14378;DHT22;7272;53.668;9.578;2022-11-20T06:14:54;2.70;99.90
14378;DHT22;7272;53.668;9.578;2022-11-20T06:17:55;2.70;99.90
14378;DHT22;7272;53.668;9.578;2022-11-20T06:21:00;2.80;99.90
14378;DHT22;7272;53.668;9.578;2022-11-20T06:24:03;2.80;99.90
14378;DHT22;7272;53.668;9.578;2022-11-20T06:27:05;2.80;99.90
14378;DHT22;7272;53.668;9.578;2022-11-20T06:30:09;2.80;99.90
14378;DHT22;7272;53.668;9.578;2022-11-20T06:33:11;2.80;99.90
14378;DHT22;7272;53.668;9.578;2022-11-20T06:36:15;2.80;99.90
14378;DHT22;7272;53.668;9.578;2022-11-20T06:39:17;2.80;99.90
14378;DHT22;7272;53.668;9.578;2022-11-20T06:42:19;2.80;99.90
14378;DHT22;7272;53.668;9.578;2022-11-20T06:45:22;2.80;99.90
14378;DHT22;7272;53.668;9.578;2022-11-20T06:48:25;2.90;99.90
14378;DHT22;7272;53.668;9.578;2022-11-20T06:51:27;2.90;99.90
14378;DHT22;7272;53.668;9.578;2022-11-20T06:54:29;2.90;99.90
14378;DHT22;7272;53.668;9.578;2022-11-20T06:57:31;2.90;99.90
14378;DHT22;7272;53.668;9.578;2022-11-20T07:00:34;2.90;99.90
14378;DHT22;7272;53.668;9.578;2022-11-20T07:03:36;2.90;99.90
14378;DHT22;7272;53.668;9.578;2022-11-20T07:06:38;2.90;99.90
14378;DHT22;7272;53.668;9.578;2022-11-20T07:09:40;2.90;99.90
14378;DHT22;7272;53.668;9.578;2022-11-20T07:12:42;2.90;99.90
14378;DHT22;7272;53.668;9.578;2022-11-20T07:15:45;2.90;99.90
14378;DHT22;7272;53.668;9.578;2022-11-20T07:18:47;2.90;99.90
14378;DHT22;7272;53.668;9.578;2022-11-20T07:21:49;2.90;99.90
14378;DHT22;7272;53.668;9.578;2022-11-20T07:24:51;2.90;99.90
14378;DHT22;7272;53.668;9.578;2022-11-20T07:27:56;3.00;99.90
14378;DHT22;7272;53.668;9.578;2022-11-20T07:30:59;3.00;99.90
14378;DHT22;7272;53.668;9.578;2022-11-20T07:34:01;3.00;99.90
14378;DHT22;7272;53.668;9.578;2022-11-20T07:37:03;3.00;99.90
14378;DHT22;7272;53.668;9.578;2022-11-20T07:40:05;3.00;99.90
14378;DHT22;7272;53.668;9.578;2022-11-20T07:43:07;3.10;99.90
14378;DHT22;7272;53.668;9.578;2022-11-20T07:46:11;3.00;99.90
14378;DHT22;7272;53.668;9.578;2022-11-20T07:49:13;3.00;99.90
14378;DHT22;7272;53.668;9.578;2022-11-20T07:52:15;3.00;99.90
14378;DHT22;7272;53.668;9.578;2022-11-20T07:55:17;2.90;99.90
14378;DHT22;7272;53.668;9.578;2022-11-20T07:58:19;2.90;99.90
14378;DHT22;7272;53.668;9.578;2022-11-20T08:01:22;2.90;99.90
14378;DHT22;7272;53.668;9.578;2022-11-20T08:04:24;2.90;99.90
14378;DHT22;7272;53.668;9.578;2022-11-20T08:07:26;3.00;99.90
14378;DHT22;7272;53.668;9.578;2022-11-20T08:10:28;3.10;99.90
14378;DHT22;7272;53.668;9.578;2022-11-20T08:13:29;3.10;99.90
14378;DHT22;7272;53.668;9.578;2022-11-20T08:16:50;3.10;99.90
14378;DHT22;7272;53.668;9.578;2022-11-20T08:19:52;3.20;99.90
14378;DHT22;7272;53.668;9.578;2022-11-20T08:22:58;3.10;99.90
14378;DHT22;7272;53.668;9.578;2022-11-20T08:26:00;3.20;99.90
14378;DHT22;7272;53.668;9.578;2022-11-20T08:29:02;3.20;99.90
14378;DHT22;7272;53.668;9.578;2022-11-20T08:32:06;3.10;99.90
14378;DHT22;7272;53.668;9.578;2022-11-20T08:35:09;3.10;99.90
14378;DHT22;7272;53.668;9.578;2022-11-20T08:38:11;3.10;99.90
14378;DHT22;7272;53.668;9.578;2022-11-20T08:41:13;3.10;99.90
14378;DHT22;7272;53.668;9.578;2022-11-20T08:44:27;3.20;99.90
14378;DHT22;7272;53.668;9.578;2022-11-20T08:47:30;3.30;99.90
14378;DHT22;7272;53.668;9.578;2022-11-20T08:50:32;3.40;99.90
14378;DHT22;7272;53.668;9.578;2022-11-20T08:53:34;3.40;99.90
14378;DHT22;7272;53.668;9.578;2022-11-20T08:56:36;3.50;99.90
14378;DHT22;7272;53.668;9.578;2022-11-20T08:59:38;3.50;99.90
14378;DHT22;7272;53.668;9.578;2022-11-20T09:02:41;3.50;99.90
14378;DHT22;7272;53.668;9.578;2022-11-20T09:05:43;3.60;99.90
14378;DHT22;7272;53.668;9.578;2022-11-20T09:08:45;3.70;99.90
14378;DHT22;7272;53.668;9.578;2022-11-20T09:11:47;3.80;99.90
14378;DHT22;7272;53.668;9.578;2022-11-20T09:14:50;3.80;99.90
14378;DHT22;7272;53.668;9.578;2022-11-20T09:17:54;3.70;99.90
14378;DHT22;7272;53.668;9.578;2022-11-20T09:20:57;3.70;99.90
14378;DHT22;7272;53.668;9.578;2022-11-20T09:23:59;3.70;99.90
14378;DHT22;7272;53.668;9.578;2022-11-20T09:27:04;3.60;99.90
14378;DHT22;7272;53.668;9.578;2022-11-20T09:30:07;3.50;99.90
14378;DHT22;7272;53.668;9.578;2022-11-20T09:33:11;3.50;99.90
14378;DHT22;7272;53.668;9.578;2022-11-20T09:36:13;3.50;99.90
14378;DHT22;7272;53.668;9.578;2022-11-20T09:39:14;3.70;99.90
14378;DHT22;7272;53.668;9.578;2022-11-20T09:42:28;3.80;99.90
14378;DHT22;7272;53.668;9.578;2022-11-20T09:45:47;4.00;99.90
14378;DHT22;7272;53.668;9.578;2022-11-20T09:49:13;4.00;99.90
14378;DHT22;7272;53.668;9.578;2022-11-20T09:52:25;4.10;99.90
14378;DHT22;7272;53.668;9.578;2022-11-20T09:55:32;4.20;99.90
14378;DHT22;7272;53.668;9.578;2022-11-20T09:58:42;4.30;99.90
14378;DHT22;7272;53.668;9.578;2022-11-20T10:01:46;4.50;99.90
14378;DHT22;7272;53.668;9.578;2022-11-20T10:05:03;4.60;99.90
14378;DHT22;7272;53.668;9.578;2022-11-20T10:08:13;4.70;99.90
14378;DHT22;7272;53.668;9.578;2022-11-20T10:11:23;4.70;99.90
14378;DHT22;7272;53.668;9.578;2022-11-20T10:14:37;4.60;99.90
14378;DHT22;7272;53.668;9.578;2022-11-20T10:18:04;4.50;99.90
14378;DHT22;7272;53.668;9.578;2022-11-20T10:21:16;4.60;99.90
14378;DHT22;7272;53.668;9.578;2022-11-20T10:24:45;4.70;99.90
14378;DHT22;7272;53.668;9.578;2022-11-20T10:28:10;4.90;99.90
14378;DHT22;7272;53.668;9.578;2022-11-20T10:31:27;4.90;99.90
14378;DHT22;7272;53.668;9.578;2022-11-20T10:34:33;4.90;99.90
14378;DHT22;7272;53.668;9.578;2022-11-20T10:37:42;4.80;99.90
14378;DHT22;7272;53.668;9.578;2022-11-20T10:40:46;4.70;99.90
14378;DHT22;7272;53.668;9.578;2022-11-20T10:43:53;4.70;99.90
14378;DHT22;7272;53.668;9.578;2022-11-20T10:46:58;4.70;99.90
14378;DHT22;7272;53.668;9.578;2022-11-20T10:50:03;4.70;99.90
14378;DHT22;7272;53.668;9.578;2022-11-20T10:53:16;4.70;99.90
14378;DHT22;7272;53.668;9.578;2022-11-20T10:56:25;4.60;99.90
14378;DHT22;7272;53.668;9.578;2022-11-20T11:02:59;4.10;99.90
14378;DHT22;7272;53.668;9.578;2022-11-20T11:06:07;4.10;99.90
14378;DHT22;7272;53.668;9.578;2022-11-20T11:09:16;4.10;99.90
14378;DHT22;7272;53.668;9.578;2022-11-20T11:12:20;4.10;99.90
14378;DHT22;7272;53.668;9.578;2022-11-20T11:15:28;4.30;99.90
14378;DHT22;7272;53.668;9.578;2022-11-20T11:18:32;4.40;99.90
14378;DHT22;7272;53.668;9.578;2022-11-20T11:21:34;4.40;99.90
14378;DHT22;7272;53.668;9.578;2022-11-20T11:24:51;4.40;99.90
14378;DHT22;7272;53.668;9.578;2022-11-20T11:27:56;4.60;99.90
14378;DHT22;7272;53.668;9.578;2022-11-20T11:30:59;4.70;99.90
14378;DHT22;7272;53.668;9.578;2022-11-20T11:34:04;4.80;99.90
14378;DHT22;7272;53.668;9.578;2022-11-20T11:37:13;4.90;99.90
14378;DHT22;7272;53.668;9.578;2022-11-20T11:40:19;4.80;99.90
14378;DHT22;7272;53.668;9.578;2022-11-20T11:43:25;4.90;99.90
14378;DHT22;7272;53.668;9.578;2022-11-20T11:46:52;4.80;99.90
14378;DHT22;7272;53.668;9.578;2022-11-20T11:50:13;4.80;99.90
14378;DHT22;7272;53.668;9.578;2022-11-20T11:53:17;4.90;99.90
14378;DHT22;7272;53.668;9.578;2022-11-20T11:56:23;4.80;99.90
14378;DHT22;7272;53.668;9.578;2022-11-20T11:59:28;4.80;99.90
14378;DHT22;7272;53.668;9.578;2022-11-20T12:02:37;5.00;99.90
14378;DHT22;7272;53.668;9.578;2022-11-20T12:05:43;5.10;99.90
14378;DHT22;7272;53.668;9.578;2022-11-20T12:08:50;5.20;99.90
14378;DHT22;7272;53.668;9.578;2022-11-20T12:12:02;5.30;99.90
14378;DHT22;7272;53.668;9.578;2022-11-20T12:15:11;5.10;99.90
14378;DHT22;7272;53.668;9.578;2022-11-20T12:18:15;5.10;99.90
14378;DHT22;7272;53.668;9.578;2022-11-20T12:21:24;5.10;99.90
14378;DHT22;7272;53.668;9.578;2022-11-20T12:24:39;5.00;99.90
14378;DHT22;7272;53.668;9.578;2022-11-20T12:31:24;4.90;99.90
14378;DHT22;7272;53.668;9.578;2022-11-20T12:34:51;5.00;99.90
14378;DHT22;7272;53.668;9.578;2022-11-20T12:38:03;5.20;99.90
14378;DHT22;7272;53.668;9.578;2022-11-20T12:41:15;5.20;99.90
14378;DHT22;7272;53.668;9.578;2022-11-20T12:48:33;5.50;99.90
14378;DHT22;7272;53.668;9.578;2022-11-20T12:51:51;5.60;99.90
14378;DHT22;7272;53.668;9.578;2022-11-20T12:55:16;5.70;99.90
14378;DHT22;7272;53.668;9.578;2022-11-20T12:58:25;5.80;99.90
14378;DHT22;7272;53.668;9.578;2022-11-20T13:01:35;5.70;99.90
14378;DHT22;7272;53.668;9.578;2022-11-20T13:04:58;5.80;99.90
14378;DHT22;7272;53.668;9.578;2022-11-20T13:08:03;5.70;99.90
14378;DHT22;7272;53.668;9.578;2022-11-20T13:11:15;5.70;99.90
14378;DHT22;7272;53.668;9.578;2022-11-20T13:14:31;5.90;99.90
14378;DHT22;7272;53.668;9.578;2022-11-20T13:17:40;6.00;99.90
14378;DHT22;7272;53.668;9.578;2022-11-20T13:20:45;5.90;99.90
14378;DHT22;7272;53.668;9.578;2022-11-20T13:23:47;5.90;99.90
14378;DHT22;7272;53.668;9.578;2022-11-20T13:27:03;5.80;99.90
14378;DHT22;7272;53.668;9.578;2022-11-20T13:30:14;5.60;99.90
14378;DHT22;7272;53.668;9.578;2022-11-20T13:33:27;5.60;99.90
14378;DHT22;7272;53.668;9.578;2022-11-20T13:36:30;5.50;99.90
14378;DHT22;7272;53.668;9.578;2022-11-20T13:39:37;5.30;99.90
14378;DHT22;7272;53.668;9.578;2022-11-20T13:42:43;5.20;99.90
14378;DHT22;7272;53.668;9.578;2022-11-20T13:45:57;4.90;99.90
14378;DHT22;7272;53.668;9.578;2022-11-20T13:49:07;4.80;99.90
14378;DHT22;7272;53.668;9.578;2022-11-20T13:52:31;4.70;99.90
14378;DHT22;7272;53.668;9.578;2022-11-20T13:55:40;4.60;99.90
14378;DHT22;7272;53.668;9.578;2022-11-20T13:58:50;4.50;99.90
14378;DHT22;7272;53.668;9.578;2022-11-20T14:01:54;4.50;99.90
14378;DHT22;7272;53.668;9.578;2022-11-20T14:04:59;4.50;99.90
14378;DHT22;7272;53.668;9.578;2022-11-20T14:08:03;4.50;99.90
14378;DHT22;7272;53.668;9.578;2022-11-20T14:11:14;4.50;99.90
14378;DHT22;7272;53.668;9.578;2022-11-20T14:14:18;4.60;99.90
14378;DHT22;7272;53.668;9.578;2022-11-20T14:17:21;4.60;99.90
14378;DHT22;7272;53.668;9.578;2022-11-20T14:20:28;4.60;99.90
14378;DHT22;7272;53.668;9.578;2022-11-20T14:23:31;4.70;99.90
14378;DHT22;7272;53.668;9.578;2022-11-20T14:26:33;4.80;99.90
14378;DHT22;7272;53.668;9.578;2022-11-20T14:29:37;4.80;99.90
14378;DHT22;7272;53.668;9.578;2022-11-20T14:32:42;4.90;99.90
14378;DHT22;7272;53.668;9.578;2022-11-20T14:35:47;5.00;99.90
14378;DHT22;7272;53.668;9.578;2022-11-20T14:38:50;5.00;99.90
14378;DHT22;7272;53.668;9.578;2022-11-20T14:41:53;4.90;99.90
14378;DHT22;7272;53.668;9.578;2022-11-20T14:44:58;4.80;99.90
14378;DHT22;7272;53.668;9.578;2022-11-20T14:48:00;4.70;99.90
14378;DHT22;7272;53.668;9.578;2022-11-20T14:51:04;4.60;99.90
14378;DHT22;7272;53.668;9.578;2022-11-20T14:54:10;4.60;99.90
14378;DHT22;7272;53.668;9.578;2022-11-20T14:57:34;4.60;99.90
14378;DHT22;7272;53.668;9.578;2022-11-20T15:00:36;4.60;99.90
14378;DHT22;7272;53.668;9.578;2022-11-20T15:03:39;4.60;99.90
14378;DHT22;7272;53.668;9.578;2022-11-20T15:06:51;4.60;99.90
14378;DHT22;7272;53.668;9.578;2022-11-20T15:10:01;4.50;99.90
14378;DHT22;7272;53.668;9.578;2022-11-20T15:13:05;4.40;99.90
14378;DHT22;7272;53.668;9.578;2022-11-20T15:16:16;4.30;99.90
14378;DHT22;7272;53.668;9.578;2022-11-20T15:19:21;4.20;99.90
14378;DHT22;7272;53.668;9.578;2022-11-20T15:22:24;4.20;99.90
14378;DHT22;7272;53.668;9.578;2022-11-20T15:25:26;4.10;99.90
14378;DHT22;7272;53.668;9.578;2022-11-20T15:28:31;4.20;99.90
14378;DHT22;7272;53.668;9.578;2022-11-20T15:31:33;4.20;99.90
14378;DHT22;7272;53.668;9.578;2022-11-20T15:34:35;4.20;99.90
14378;DHT22;7272;53.668;9.578;2022-11-20T15:37:38;4.20;99.90
14378;DHT22;7272;53.668;9.578;2022-11-20T15:40:40;4.30;99.90
14378;DHT22;7272;53.668;9.578;2022-11-20T15:43:42;4.30;99.90
14378;DHT22;7272;53.668;9.578;2022-11-20T15:46:44;4.40;99.90
14378;DHT22;7272;53.668;9.578;2022-11-20T15:49:47;4.40;99.90
14378;DHT22;7272;53.668;9.578;2022-11-20T15:52:50;4.40;99.90
14378;DHT22;7272;53.668;9.578;2022-11-20T15:55:52;4.30;99.90
14378;DHT22;7272;53.668;9.578;2022-11-20T15:58:53;4.20;99.90
14378;DHT22;7272;53.668;9.578;2022-11-20T16:01:55;4.20;99.90
14378;DHT22;7272;53.668;9.578;2022-11-20T16:04:57;4.20;99.90
14378;DHT22;7272;53.668;9.578;2022-11-20T16:08:00;4.20;99.90
14378;DHT22;7272;53.668;9.578;2022-11-20T16:11:03;4.20;99.90
14378;DHT22;7272;53.668;9.578;2022-11-20T16:14:05;4.10;99.90
14378;DHT22;7272;53.668;9.578;2022-11-20T16:17:25;4.10;99.90
14378;DHT22;7272;53.668;9.578;2022-11-20T16:20:43;4.10;99.90
14378;DHT22;7272;53.668;9.578;2022-11-20T16:23:47;4.10;99.90
14378;DHT22;7272;53.668;9.578;2022-11-20T16:26:48;4.00;99.90
14378;DHT22;7272;53.668;9.578;2022-11-20T16:29:50;4.00;99.90
14378;DHT22;7272;53.668;9.578;2022-11-20T16:32:52;4.00;99.90
14378;DHT22;7272;53.668;9.578;2022-11-20T16:35:54;4.00;99.90
14378;DHT22;7272;53.668;9.578;2022-11-20T16:38:58;3.90;99.90
14378;DHT22;7272;53.668;9.578;2022-11-20T16:42:03;3.90;99.90
14378;DHT22;7272;53.668;9.578;2022-11-20T16:45:06;3.90;99.90
14378;DHT22;7272;53.668;9.578;2022-11-20T16:48:11;3.90;99.90
14378;DHT22;7272;53.668;9.578;2022-11-20T16:51:13;3.80;99.90
14378;DHT22;7272;53.668;9.578;2022-11-20T16:54:17;3.70;99.90
14378;DHT22;7272;53.668;9.578;2022-11-20T16:57:18;3.60;99.90
14378;DHT22;7272;53.668;9.578;2022-11-20T17:00:20;3.60;99.90
14378;DHT22;7272;53.668;9.578;2022-11-20T17:03:22;3.60;99.90
14378;DHT22;7272;53.668;9.578;2022-11-20T17:06:26;3.60;99.90
14378;DHT22;7272;53.668;9.578;2022-11-20T17:09:29;3.60;99.90
14378;DHT22;7272;53.668;9.578;2022-11-20T17:12:31;3.60;99.90
14378;DHT22;7272;53.668;9.578;2022-11-20T17:15:33;3.50;99.90
14378;DHT22;7272;53.668;9.578;2022-11-20T17:18:35;3.50;99.90
14378;DHT22;7272;53.668;9.578;2022-11-20T17:21:37;3.60;99.90
14378;DHT22;7272;53.668;9.578;2022-11-20T17:24:41;3.50;99.90
14378;DHT22;7272;53.668;9.578;2022-11-20T17:27:43;3.60;99.90
14378;DHT22;7272;53.668;9.578;2022-11-20T17:30:44;3.60;99.90
14378;DHT22;7272;53.668;9.578;2022-11-20T17:33:46;3.60;99.90
14378;DHT22;7272;53.668;9.578;2022-11-20T17:36:49;3.50;99.90
14378;DHT22;7272;53.668;9.578;2022-11-20T17:39:52;3.50;99.90
14378;DHT22;7272;53.668;9.578;2022-11-20T17:42:54;3.50;99.90
14378;DHT22;7272;53.668;9.578;2022-11-20T17:45:56;3.30;99.90
14378;DHT22;7272;53.668;9.578;2022-11-20T17:48:58;3.40;99.90
14378;DHT22;7272;53.668;9.578;2022-11-20T17:52:01;3.40;99.90
14378;DHT22;7272;53.668;9.578;2022-11-20T17:55:05;3.50;99.90
14378;DHT22;7272;53.668;9.578;2022-11-20T17:58:07;3.50;99.90
14378;DHT22;7272;53.668;9.578;2022-11-20T18:01:09;3.50;99.90
14378;DHT22;7272;53.668;9.578;2022-11-20T18:04:11;3.50;99.90
14378;DHT22;7272;53.668;9.578;2022-11-20T18:07:13;3.60;99.90
14378;DHT22;7272;53.668;9.578;2022-11-20T18:10:17;3.70;99.90
14378;DHT22;7272;53.668;9.578;2022-11-20T18:13:19;3.60;99.90
14378;DHT22;7272;53.668;9.578;2022-11-20T18:16:42;3.70;99.90
14378;DHT22;7272;53.668;9.578;2022-11-20T18:19:45;3.70;99.90
14378;DHT22;7272;53.668;9.578;2022-11-20T18:22:47;3.60;99.90
14378;DHT22;7272;53.668;9.578;2022-11-20T18:25:51;3.60;99.90
14378;DHT22;7272;53.668;9.578;2022-11-20T18:28:53;3.60;99.90
14378;DHT22;7272;53.668;9.578;2022-11-20T18:31:55;3.60;99.90
14378;DHT22;7272;53.668;9.578;2022-11-20T18:34:57;3.70;99.90
14378;DHT22;7272;53.668;9.578;2022-11-20T18:37:59;3.70;99.90
14378;DHT22;7272;53.668;9.578;2022-11-20T18:41:02;3.80;99.90
14378;DHT22;7272;53.668;9.578;2022-11-20T18:44:06;3.80;99.90
14378;DHT22;7272;53.668;9.578;2022-11-20T18:47:27;3.80;99.90
14378;DHT22;7272;53.668;9.578;2022-11-20T18:50:30;3.80;99.90
14378;DHT22;7272;53.668;9.578;2022-11-20T18:53:33;3.80;99.90
14378;DHT22;7272;53.668;9.578;2022-11-20T18:56:37;3.90;99.90
14378;DHT22;7272;53.668;9.578;2022-11-20T18:59:39;3.90;99.90
14378;DHT22;7272;53.668;9.578;2022-11-20T19:02:41;4.00;99.90
14378;DHT22;7272;53.668;9.578;2022-11-20T19:05:43;3.90;99.90
14378;DHT22;7272;53.668;9.578;2022-11-20T19:08:45;3.90;99.90
14378;DHT22;7272;53.668;9.578;2022-11-20T19:11:48;3.80;99.90
14378;DHT22;7272;53.668;9.578;2022-11-20T19:14:50;3.80;99.90
14378;DHT22;7272;53.668;9.578;2022-11-20T19:17:52;3.80;99.90
14378;DHT22;7272;53.668;9.578;2022-11-20T19:20:56;3.90;99.90
14378;DHT22;7272;53.668;9.578;2022-11-20T19:24:02;4.00;99.90
14378;DHT22;7272;53.668;9.578;2022-11-20T19:27:06;4.00;99.90
14378;DHT22;7272;53.668;9.578;2022-11-20T19:30:09;4.00;99.90
14378;DHT22;7272;53.668;9.578;2022-11-20T19:33:11;4.00;99.90
14378;DHT22;7272;53.668;9.578;2022-11-20T19:36:14;3.80;99.90
14378;DHT22;7272;53.668;9.578;2022-11-20T19:39:16;3.80;99.90
14378;DHT22;7272;53.668;9.578;2022-11-20T19:42:19;3.80;99.90
14378;DHT22;7272;53.668;9.578;2022-11-20T19:45:21;3.80;99.90
14378;DHT22;7272;53.668;9.578;2022-11-20T19:48:23;3.90;99.90
14378;DHT22;7272;53.668;9.578;2022-11-20T19:51:27;3.80;99.90
14378;DHT22;7272;53.668;9.578;2022-11-20T19:54:30;3.80;99.90
14378;DHT22;7272;53.668;9.578;2022-11-20T19:57:33;3.80;99.90
14378;DHT22;7272;53.668;9.578;2022-11-20T20:00:35;3.80;99.90
14378;DHT22;7272;53.668;9.578;2022-11-20T20:03:37;3.80;99.90
14378;DHT22;7272;53.668;9.578;2022-11-20T20:06:40;3.80;99.90
14378;DHT22;7272;53.668;9.578;2022-11-20T20:09:42;3.90;99.90
14378;DHT22;7272;53.668;9.578;2022-11-20T20:12:45;3.90;99.90
14378;DHT22;7272;53.668;9.578;2022-11-20T20:15:47;3.90;99.90
14378;DHT22;7272;53.668;9.578;2022-11-20T20:18:53;3.80;99.90